createdAt,value
2019-01-17T00:00:54.755Z,5.80
2019-01-17T00:04:08.766Z,5.60
2019-01-17T00:07:14.918Z,5.50
2019-01-17T00:10:20.690Z,5.40
2019-01-17T00:13:31.953Z,5.30
2019-01-17T00:16:28.889Z,5.30
2019-01-17T00:19:34.055Z,5.20
2019-01-17T00:22:48.354Z,5.20
2019-01-17T00:26:02.006Z,5.20
2019-01-17T00:29:07.902Z,5.10
2019-01-17T00:32:13.699Z,5.10
2019-01-17T00:35:21.023Z,5.10
2019-01-17T00:38:23.280Z,5.10
2019-01-17T00:41:30.358Z,5.10
2019-01-17T00:44:47.533Z,5.10
2019-01-17T00:48:00.290Z,5.10
2019-01-17T00:51:25.699Z,5.10
2019-01-17T00:54:32.639Z,5.20
2019-01-17T00:57:27.850Z,5.10
2019-01-17T01:00:26.647Z,5.10
2019-01-17T01:03:43.243Z,5.20
2019-01-17T01:06:48.633Z,5.20
2019-01-17T01:09:54.011Z,5.30
2019-01-17T01:12:48.342Z,5.30
2019-01-17T01:16:17.604Z,5.30
2019-01-17T01:19:15.118Z,5.40
2019-01-17T01:22:23.330Z,5.40
2019-01-17T01:25:36.527Z,5.50
2019-01-17T01:28:32.762Z,5.50
2019-01-17T01:31:39.222Z,5.50
2019-01-17T01:34:40.932Z,5.50
2019-01-17T01:37:51.858Z,5.50
2019-01-17T01:40:58.986Z,5.50
2019-01-17T01:44:04.566Z,5.60
2019-01-17T01:47:10.002Z,5.60
2019-01-17T01:50:15.562Z,5.60
2019-01-17T01:53:05.784Z,5.60
2019-01-17T01:55:54.058Z,5.60
2019-01-17T01:58:41.762Z,5.50
2019-01-17T02:01:30.065Z,5.50
2019-01-17T02:04:18.226Z,5.60
2019-01-17T02:07:06.575Z,5.50
2019-01-17T02:09:55.057Z,5.60
2019-01-17T02:12:43.407Z,5.60
2019-01-17T02:15:31.647Z,5.60
2019-01-17T02:18:19.275Z,5.60
2019-01-17T02:21:07.623Z,5.60
2019-01-17T02:23:55.818Z,5.60
2019-01-17T02:26:44.139Z,5.60
2019-01-17T02:29:32.034Z,5.60
2019-01-17T02:32:20.718Z,5.60
2019-01-17T02:35:09.087Z,5.60
2019-01-17T02:37:57.846Z,5.60
2019-01-17T02:40:46.327Z,5.60
2019-01-17T02:43:33.978Z,5.60
2019-01-17T02:46:22.584Z,5.60
2019-01-17T02:49:11.054Z,5.60
2019-01-17T02:51:59.174Z,5.60
2019-01-17T02:54:47.767Z,5.70
2019-01-17T02:57:36.407Z,5.60
2019-01-17T03:00:24.763Z,5.60
2019-01-17T03:03:13.056Z,5.60
2019-01-17T03:06:01.716Z,5.60
2019-01-17T03:08:49.870Z,5.60
2019-01-17T03:11:38.323Z,5.60
2019-01-17T03:14:26.294Z,5.60
2019-01-17T03:17:14.568Z,5.60
2019-01-17T03:20:03.310Z,5.50
2019-01-17T03:22:51.162Z,5.50
2019-01-17T03:25:39.814Z,5.50
2019-01-17T03:28:27.771Z,5.50
2019-01-17T03:31:16.606Z,5.60
2019-01-17T03:34:04.549Z,5.60
2019-01-17T03:36:52.522Z,5.60
2019-01-17T03:39:41.011Z,5.60
2019-01-17T03:42:29.358Z,5.60
2019-01-17T03:45:17.663Z,5.60
2019-01-17T03:48:05.736Z,5.60
2019-01-17T03:50:53.991Z,5.60
2019-01-17T03:53:41.795Z,5.60
2019-01-17T03:56:29.764Z,5.60
2019-01-17T03:59:17.751Z,5.70
2019-01-17T04:02:06.060Z,5.60
2019-01-17T04:04:54.371Z,5.60
2019-01-17T04:07:42.871Z,5.60
2019-01-17T04:10:30.654Z,5.60
2019-01-17T04:13:18.869Z,5.60
2019-01-17T04:16:06.960Z,5.60
2019-01-17T04:18:55.092Z,5.60
2019-01-17T04:21:43.700Z,5.60
2019-01-17T04:24:32.098Z,5.60
2019-01-17T04:27:20.352Z,5.60
2019-01-17T04:30:15.031Z,5.60
2019-01-17T04:33:03.659Z,5.70
2019-01-17T04:35:51.647Z,5.60
2019-01-17T04:38:39.603Z,5.60
2019-01-17T04:41:28.352Z,5.70
2019-01-17T04:44:16.851Z,5.60
2019-01-17T04:47:04.517Z,5.60
2019-01-17T04:49:52.428Z,5.70
2019-01-17T04:52:40.838Z,5.60
2019-01-17T04:55:29.198Z,5.60
2019-01-17T04:58:17.603Z,5.60
2019-01-17T05:01:05.574Z,5.70
2019-01-17T05:03:54.016Z,5.70
2019-01-17T05:06:41.999Z,5.70
2019-01-17T05:09:30.267Z,5.70
2019-01-17T05:12:17.902Z,5.70
2019-01-17T05:15:06.555Z,5.70
2019-01-17T05:17:54.559Z,5.70
2019-01-17T05:20:43.193Z,5.70
2019-01-17T05:23:31.279Z,5.70
2019-01-17T05:26:19.606Z,5.70
2019-01-17T05:29:08.299Z,5.60
2019-01-17T05:31:57.007Z,5.60
2019-01-17T05:34:45.445Z,5.60
2019-01-17T05:37:33.021Z,5.60
2019-01-17T05:40:21.823Z,5.60
2019-01-17T05:43:09.587Z,5.60
2019-01-17T05:45:57.507Z,5.60
2019-01-17T05:48:46.825Z,5.60
2019-01-17T05:51:34.915Z,5.60
2019-01-17T05:54:23.839Z,5.60
2019-01-17T05:57:11.790Z,5.60
2019-01-17T06:00:00.278Z,5.60
2019-01-17T06:02:48.352Z,5.60
2019-01-17T06:05:36.318Z,5.70
2019-01-17T06:08:24.710Z,5.70
2019-01-17T06:11:13.243Z,5.70
2019-01-17T06:14:01.466Z,5.70
2019-01-17T06:16:49.862Z,5.60
2019-01-17T06:19:37.778Z,5.60
2019-01-17T06:22:26.223Z,5.70
2019-01-17T06:25:14.522Z,5.60
2019-01-17T06:28:02.552Z,5.60
2019-01-17T06:30:50.736Z,5.50
2019-01-17T06:33:38.729Z,5.60
2019-01-17T06:36:27.331Z,5.60
2019-01-17T06:39:15.230Z,5.60
2019-01-17T06:42:03.319Z,5.70
2019-01-17T06:44:50.855Z,5.70
2019-01-17T06:47:39.238Z,5.70
2019-01-17T06:50:26.962Z,5.70
2019-01-17T06:53:15.610Z,5.80
2019-01-17T06:56:03.630Z,5.80
2019-01-17T06:58:52.294Z,5.70
2019-01-17T07:01:40.236Z,5.70
2019-01-17T07:04:28.214Z,5.80
2019-01-17T07:07:16.754Z,5.80
2019-01-17T07:10:06.377Z,5.70
2019-01-17T07:12:54.614Z,5.70
2019-01-17T07:15:42.848Z,5.60
2019-01-17T07:18:31.271Z,5.60
2019-01-17T07:21:19.107Z,5.60
2019-01-17T07:24:07.490Z,5.60
2019-01-17T07:26:56.055Z,5.50
2019-01-17T07:29:44.019Z,5.50
2019-01-17T07:32:32.319Z,5.50
2019-01-17T07:35:20.687Z,5.50
2019-01-17T07:38:08.407Z,5.50
2019-01-17T07:40:56.618Z,5.40
2019-01-17T07:43:45.067Z,5.40
2019-01-17T07:46:33.670Z,5.40
2019-01-17T07:49:22.337Z,5.40
2019-01-17T07:52:10.324Z,5.40
2019-01-17T07:54:58.335Z,5.40
2019-01-17T07:57:46.849Z,5.40
2019-01-17T08:00:34.907Z,5.40
2019-01-17T08:03:23.342Z,5.40
2019-01-17T08:06:11.923Z,5.50
2019-01-17T08:09:00.378Z,5.50
2019-01-17T08:11:48.474Z,5.60
2019-01-17T08:14:36.848Z,5.60
2019-01-17T08:17:24.602Z,5.60
2019-01-17T08:20:21.233Z,5.70
2019-01-17T08:23:09.551Z,5.80
2019-01-17T08:25:57.510Z,5.80
2019-01-17T08:28:45.552Z,6.10
2019-01-17T08:31:34.083Z,6.20
2019-01-17T08:34:28.148Z,6.40
2019-01-17T08:37:12.019Z,6.60
2019-01-17T08:40:00.470Z,6.60
2019-01-17T08:42:48.797Z,6.50
2019-01-17T08:45:37.067Z,6.50
2019-01-17T08:48:25.283Z,6.40
2019-01-17T08:51:13.627Z,6.40
2019-01-17T08:54:01.671Z,6.40
2019-01-17T08:56:50.175Z,6.60
2019-01-17T08:59:38.319Z,6.60
2019-01-17T09:02:26.306Z,6.70
2019-01-17T09:05:14.659Z,6.70
2019-01-17T09:08:03.170Z,6.70
2019-01-17T09:10:51.580Z,6.90
2019-01-17T09:13:39.627Z,7.00
2019-01-17T09:16:28.397Z,7.00
2019-01-17T09:19:16.655Z,7.00
2019-01-17T09:22:04.919Z,7.00
2019-01-17T09:24:52.499Z,6.90
2019-01-17T09:27:40.206Z,6.90
2019-01-17T09:30:28.475Z,6.80
2019-01-17T09:33:17.355Z,6.60
2019-01-17T09:36:05.553Z,6.60
2019-01-17T09:38:53.854Z,6.60
2019-01-17T09:41:41.415Z,6.70
2019-01-17T09:44:29.460Z,6.70
2019-01-17T09:47:18.375Z,6.80
2019-01-17T09:50:10.563Z,7.00
2019-01-17T09:52:58.625Z,7.40
2019-01-17T09:55:46.522Z,7.30
2019-01-17T09:58:34.746Z,7.10
2019-01-17T10:01:23.063Z,7.00
2019-01-17T10:04:10.984Z,6.90
2019-01-17T10:06:58.979Z,6.80
2019-01-17T10:09:47.158Z,6.90
2019-01-17T10:12:35.587Z,7.10
2019-01-17T10:15:57.215Z,7.20
2019-01-17T10:19:10.446Z,7.10
2019-01-17T10:22:30.827Z,7.30
2019-01-17T10:25:50.690Z,7.20
2019-01-17T10:29:18.474Z,7.30
2019-01-17T10:32:51.108Z,7.30
2019-01-17T10:36:16.544Z,7.20
2019-01-17T10:39:42.391Z,6.90
2019-01-17T10:43:03.623Z,6.70
2019-01-17T10:46:18.946Z,6.50
2019-01-17T10:49:47.750Z,6.30
2019-01-17T10:53:10.590Z,6.00
2019-01-17T10:56:41.319Z,5.90
2019-01-17T10:59:59.966Z,5.70
2019-01-17T11:03:02.442Z,5.40
2019-01-17T11:06:20.483Z,6.00
2019-01-17T11:09:41.358Z,6.00
2019-01-17T11:12:59.498Z,5.30
2019-01-17T11:16:23.251Z,4.60
2019-01-17T11:19:59.050Z,4.10
2019-01-17T11:23:11.714Z,3.70
2019-01-17T11:26:15.071Z,3.60
2019-01-17T11:29:38.431Z,3.60
2019-01-17T11:32:59.577Z,3.70
2019-01-17T11:36:23.762Z,3.70
2019-01-17T11:39:36.590Z,3.70
2019-01-17T11:43:03.641Z,3.70
2019-01-17T11:46:25.102Z,3.80
2019-01-17T11:49:47.020Z,3.80
2019-01-17T11:52:58.415Z,3.70
2019-01-17T11:56:16.595Z,3.70
2019-01-17T11:59:38.751Z,3.70
2019-01-17T12:02:52.666Z,3.70
2019-01-17T12:05:40.380Z,3.70
2019-01-17T12:08:28.587Z,3.80
2019-01-17T12:11:16.115Z,3.90
2019-01-17T12:14:04.599Z,3.80
2019-01-17T12:16:52.560Z,3.70
2019-01-17T12:19:40.451Z,3.70
2019-01-17T12:22:29.027Z,3.70
2019-01-17T12:25:17.502Z,3.80
2019-01-17T12:28:06.187Z,3.80
2019-01-17T12:30:54.164Z,3.80
2019-01-17T12:33:42.918Z,3.90
2019-01-17T12:36:31.127Z,4.00
2019-01-17T12:39:18.670Z,4.00
2019-01-17T12:42:07.483Z,4.00
2019-01-17T12:44:55.719Z,4.10
2019-01-17T12:47:43.763Z,4.20
2019-01-17T12:50:31.901Z,4.30
2019-01-17T12:53:20.336Z,4.30
2019-01-17T12:56:08.973Z,4.40
2019-01-17T12:58:57.646Z,4.30
2019-01-17T13:01:46.122Z,4.30
2019-01-17T13:04:34.646Z,4.30
2019-01-17T13:07:22.437Z,4.40
2019-01-17T13:10:11.318Z,4.40
2019-01-17T13:12:59.587Z,4.50
2019-01-17T13:15:47.558Z,4.40
2019-01-17T13:18:35.864Z,4.40
2019-01-17T13:21:24.026Z,4.40
2019-01-17T13:24:12.755Z,4.20
2019-01-17T13:27:01.099Z,4.20
2019-01-17T13:29:49.648Z,4.20
2019-01-17T13:32:38.246Z,4.30
2019-01-17T13:35:29.655Z,4.20
2019-01-17T13:38:17.766Z,4.20
2019-01-17T13:41:05.343Z,4.10
2019-01-17T13:43:53.806Z,4.20
2019-01-17T13:46:42.058Z,4.20
2019-01-17T13:49:30.366Z,4.20
2019-01-17T13:52:18.676Z,4.10
2019-01-17T13:55:07.394Z,4.10
2019-01-17T13:57:56.081Z,4.10
2019-01-17T14:00:44.175Z,4.20
2019-01-17T14:03:32.440Z,4.20
2019-01-17T14:06:20.710Z,4.10
2019-01-17T14:09:09.383Z,4.10
2019-01-17T14:11:58.083Z,4.00
2019-01-17T14:14:46.661Z,3.90
2019-01-17T14:17:34.559Z,4.00
2019-01-17T14:20:23.172Z,4.00
2019-01-17T14:23:10.967Z,3.90
2019-01-17T14:25:59.146Z,4.00
2019-01-17T14:28:47.583Z,4.00
2019-01-17T14:31:36.083Z,4.10
2019-01-17T14:34:24.135Z,4.30
2019-01-17T14:37:12.393Z,4.50
2019-01-17T14:40:00.515Z,4.80
2019-01-17T14:42:48.912Z,4.80
2019-01-17T14:45:37.143Z,4.90
2019-01-17T14:48:25.395Z,4.90
2019-01-17T14:51:13.708Z,4.50
2019-01-17T14:54:02.231Z,4.40
2019-01-17T14:56:50.119Z,4.30
2019-01-17T14:59:38.234Z,4.20
2019-01-17T15:02:26.982Z,4.10
2019-01-17T15:05:16.220Z,4.00
2019-01-17T15:08:04.167Z,4.00
2019-01-17T15:10:52.332Z,4.00
2019-01-17T15:13:40.319Z,4.00
2019-01-17T15:16:28.538Z,3.90
2019-01-17T15:19:16.514Z,3.90
2019-01-17T15:22:04.141Z,4.00
2019-01-17T15:24:52.599Z,4.00
2019-01-17T15:27:40.387Z,4.00
2019-01-17T15:30:27.962Z,4.00
2019-01-17T15:33:16.255Z,4.00
2019-01-17T15:36:04.577Z,4.00
2019-01-17T15:38:52.559Z,4.00
2019-01-17T15:41:41.218Z,4.00
2019-01-17T15:44:29.162Z,4.00
2019-01-17T15:47:16.952Z,4.00
2019-01-17T15:50:05.855Z,4.00
2019-01-17T15:52:53.467Z,4.00
2019-01-17T15:55:41.726Z,4.00
2019-01-17T15:58:29.710Z,3.90
2019-01-17T16:01:18.079Z,3.80
2019-01-17T16:04:06.867Z,3.70
2019-01-17T16:06:54.554Z,3.70
2019-01-17T16:09:42.873Z,3.60
2019-01-17T16:12:31.123Z,3.60
2019-01-17T16:15:21.074Z,3.50
2019-01-17T16:18:09.258Z,3.40
2019-01-17T16:20:57.275Z,3.40
2019-01-17T16:23:45.983Z,3.30
2019-01-17T16:26:34.202Z,3.30
2019-01-17T16:29:22.335Z,3.20
2019-01-17T16:32:10.355Z,3.10
2019-01-17T16:34:58.735Z,3.10
2019-01-17T16:37:47.062Z,3.10
2019-01-17T16:40:34.779Z,3.00
2019-01-17T16:43:23.251Z,3.10
2019-01-17T16:46:11.589Z,3.10
2019-01-17T16:48:59.882Z,3.20
2019-01-17T16:51:47.664Z,3.30
2019-01-17T16:54:35.187Z,3.30
2019-01-17T16:57:23.725Z,3.40
2019-01-17T17:00:34.086Z,3.40
2019-01-17T17:03:22.800Z,3.40
2019-01-17T17:06:11.206Z,3.40
2019-01-17T17:08:59.998Z,3.40
2019-01-17T17:11:48.341Z,3.50
2019-01-17T17:14:36.437Z,3.40
2019-01-17T17:17:24.452Z,3.30
2019-01-17T17:20:15.467Z,3.30
2019-01-17T17:23:04.420Z,3.20
2019-01-17T17:25:52.534Z,3.20
2019-01-17T17:28:40.716Z,3.10
2019-01-17T17:31:29.190Z,3.10
2019-01-17T17:34:17.429Z,3.00
2019-01-17T17:37:05.999Z,3.00
2019-01-17T17:39:53.768Z,3.00
2019-01-17T17:42:42.067Z,2.90
2019-01-17T17:45:30.310Z,2.90
2019-01-17T17:48:18.423Z,2.90
2019-01-17T17:51:06.091Z,2.90
2019-01-17T17:53:54.386Z,2.80
2019-01-17T17:56:42.530Z,2.80
2019-01-17T17:59:31.319Z,2.80
2019-01-17T18:02:28.145Z,2.90
2019-01-17T18:05:16.454Z,3.00
2019-01-17T18:08:04.905Z,3.00
2019-01-17T18:10:53.075Z,3.00
2019-01-17T18:13:41.046Z,3.00
2019-01-17T18:16:29.492Z,3.00
2019-01-17T18:19:17.547Z,3.00
2019-01-17T18:22:06.451Z,3.00
2019-01-17T18:24:54.899Z,3.10
2019-01-17T18:27:42.883Z,3.10
2019-01-17T18:30:30.483Z,3.10
2019-01-17T18:33:18.928Z,3.10
2019-01-17T18:36:06.510Z,3.10
2019-01-17T18:38:54.994Z,3.10
2019-01-17T18:41:43.518Z,3.00
2019-01-17T18:44:31.591Z,2.90
2019-01-17T18:47:19.903Z,2.90
2019-01-17T18:50:11.052Z,2.90
2019-01-17T18:52:59.299Z,3.00
2019-01-17T18:55:48.275Z,3.00
2019-01-17T18:58:36.662Z,2.90
2019-01-17T19:01:25.150Z,2.80
2019-01-17T19:04:13.287Z,2.70
2019-01-17T19:07:01.267Z,2.70
2019-01-17T19:09:49.520Z,2.60
2019-01-17T19:12:37.106Z,2.60
2019-01-17T19:15:27.737Z,2.50
2019-01-17T19:18:16.218Z,2.50
2019-01-17T19:21:04.179Z,2.40
2019-01-17T19:23:52.734Z,2.40
2019-01-17T19:26:41.010Z,2.30
2019-01-17T19:29:29.178Z,2.30
2019-01-17T19:32:17.236Z,2.20
2019-01-17T19:35:07.763Z,2.00
2019-01-17T19:37:55.714Z,2.10
2019-01-17T19:40:44.258Z,2.20
2019-01-17T19:43:32.699Z,2.10
2019-01-17T19:46:20.478Z,2.10
2019-01-17T19:49:09.095Z,2.00
2019-01-17T19:51:57.563Z,2.00
2019-01-17T19:54:45.718Z,2.00
2019-01-17T19:57:33.631Z,2.00
2019-01-17T20:00:22.121Z,2.10
2019-01-17T20:03:10.263Z,2.10
2019-01-17T20:05:58.835Z,2.00
2019-01-17T20:08:46.670Z,1.90
2019-01-17T20:11:35.013Z,1.90
2019-01-17T20:14:23.043Z,1.90
2019-01-17T20:17:11.270Z,1.90
2019-01-17T20:19:59.310Z,1.90
2019-01-17T20:22:47.034Z,1.90
2019-01-17T20:25:35.441Z,1.90
2019-01-17T20:28:23.470Z,1.90
2019-01-17T20:31:11.938Z,1.90
2019-01-17T20:34:00.455Z,1.90
2019-01-17T20:36:49.183Z,1.90
2019-01-17T20:39:37.754Z,1.90
2019-01-17T20:42:26.139Z,1.90
2019-01-17T20:45:15.062Z,1.90
2019-01-17T20:48:03.610Z,2.00
2019-01-17T20:50:51.824Z,2.10
2019-01-17T20:53:40.394Z,2.00
2019-01-17T20:56:28.861Z,2.00
2019-01-17T20:59:16.831Z,2.00
2019-01-17T21:02:17.294Z,2.00
2019-01-17T21:05:06.558Z,1.90
2019-01-17T21:07:54.923Z,1.90
2019-01-17T21:10:43.735Z,1.80
2019-01-17T21:13:31.391Z,1.80
2019-01-17T21:16:19.939Z,1.90
2019-01-17T21:19:08.709Z,1.80
2019-01-17T21:21:57.123Z,1.90
2019-01-17T21:24:45.522Z,1.90
2019-01-17T21:27:34.469Z,1.90
2019-01-17T21:30:23.477Z,2.00
2019-01-17T21:33:11.506Z,1.90
2019-01-17T21:35:59.085Z,1.90
2019-01-17T21:38:47.106Z,1.90
2019-01-17T21:41:35.372Z,1.90
2019-01-17T21:44:23.872Z,1.80
2019-01-17T21:47:11.830Z,1.80
2019-01-17T21:49:59.982Z,1.80
2019-01-17T21:52:47.911Z,1.80
2019-01-17T21:55:35.987Z,1.90
2019-01-17T21:58:24.435Z,2.00
2019-01-17T22:01:13.044Z,2.10
2019-01-17T22:04:01.475Z,2.10
2019-01-17T22:06:50.341Z,2.20
2019-01-17T22:09:38.639Z,2.30
2019-01-17T22:12:27.083Z,2.30
2019-01-17T22:15:18.287Z,2.30
2019-01-17T22:18:07.342Z,2.30
2019-01-17T22:20:56.959Z,2.40
2019-01-17T22:23:53.069Z,2.30
2019-01-17T22:26:46.276Z,2.30
2019-01-17T22:29:35.518Z,2.30
2019-01-17T22:32:23.094Z,2.30
2019-01-17T22:35:13.083Z,2.30
2019-01-17T22:38:03.153Z,2.20
2019-01-17T22:40:57.413Z,2.20
2019-01-17T22:43:45.189Z,2.30
2019-01-17T22:46:39.530Z,2.30
2019-01-17T22:49:27.066Z,2.30
2019-01-17T22:52:18.182Z,2.30
2019-01-17T22:55:07.090Z,2.40
2019-01-17T22:57:55.097Z,2.30
2019-01-17T23:01:05.742Z,2.40
2019-01-17T23:03:55.459Z,2.40
2019-01-17T23:06:43.780Z,2.30
2019-01-17T23:09:34.765Z,2.30
2019-01-17T23:12:23.279Z,2.30
2019-01-17T23:15:11.779Z,2.30
2019-01-17T23:18:02.321Z,2.30
2019-01-17T23:21:00.968Z,2.30
2019-01-17T23:23:48.922Z,2.30
2019-01-17T23:26:37.542Z,2.30
2019-01-17T23:29:25.415Z,2.30
2019-01-17T23:32:13.451Z,2.30
2019-01-17T23:35:02.273Z,2.30
2019-01-17T23:37:50.526Z,2.20
2019-01-17T23:40:37.969Z,2.30
2019-01-17T23:43:26.352Z,2.20
2019-01-17T23:46:14.600Z,2.00
2019-01-17T23:49:03.019Z,1.90
2019-01-17T23:51:50.762Z,1.80
2019-01-17T23:54:38.558Z,1.70
2019-01-17T23:57:27.679Z,1.70
